Time;durP1;ratioP1;P1;durP2;ratioP2;P2;SDS_P1;SDS_P2;PMS_P1;PMS_P2;Temp;Humidity;BMP_temperature;BMP_pressure;BME280_temperature;BME280_humidity;BME280_pressure;Samples;Min_cycle;Max_cycle;Signal;HPM_P1;HPM_P2
2022/08/06 00:00:16;;;;;;;7.90;7.10;;;;;;;21.67;62.34;96502.38;108390;1268;22523;-83
2022/08/06 00:03:08;;;;;;;7.50;6.70;;;;;;;21.57;62.39;96501.00;108393;1268;22550;-83
2022/08/06 00:05:39;;;;;;;7.80;6.40;;;;;;;21.53;62.50;96496.37;108344;1267;32327;-83
2022/08/06 00:08:12;;;;;;;7.70;6.70;;;;;;;21.48;62.53;96495.70;108388;1268;22526;-83
2022/08/06 00:10:46;;;;;;;7.50;6.80;;;;;;;21.51;62.53;96498.84;108414;1268;22518;-83
2022/08/06 00:13:18;;;;;;;8.20;6.90;;;;;;;21.46;62.56;96495.82;108522;1268;22661;-83
2022/08/06 00:15:50;;;;;;;7.60;6.40;;;;;;;21.46;62.79;96497.44;108354;1268;78548;-83
2022/08/06 00:18:21;;;;;;;9.50;7.50;;;;;;;21.55;62.79;96499.73;108479;1268;22520;-83
2022/08/06 00:20:52;;;;;;;10.50;8.30;;;;;;;21.67;62.77;96501.60;108400;1268;22539;-84
2022/08/06 00:23:24;;;;;;;9.00;8.00;;;;;;;21.73;62.54;96501.73;108484;1268;23357;-83
2022/08/06 00:25:55;;;;;;;9.10;7.80;;;;;;;21.79;62.66;96501.84;106782;1268;2034461;-83
2022/08/06 00:28:27;;;;;;;8.00;6.80;;;;;;;21.84;62.63;96502.27;108509;1268;22472;-84
2022/08/06 00:30:58;;;;;;;8.90;7.20;;;;;;;21.90;62.50;96501.79;108532;1268;22520;-83
2022/08/06 00:33:29;;;;;;;8.20;6.50;;;;;;;21.98;62.39;96500.64;108472;1268;22663;-83
2022/08/06 00:36:01;;;;;;;8.50;7.10;;;;;;;22.03;62.37;96501.44;108378;1268;32449;-83
2022/08/06 00:38:33;;;;;;;7.60;6.90;;;;;;;22.08;62.22;96501.24;108438;1268;23329;-84
2022/08/06 00:41:05;;;;;;;8.00;6.90;;;;;;;22.12;62.08;96494.95;108439;1268;22628;-83
2022/08/06 00:43:37;;;;;;;7.10;6.40;;;;;;;22.15;62.09;96494.31;108371;1268;25370;-84
2022/08/06 00:46:09;;;;;;;10.30;7.40;;;;;;;22.15;62.10;96495.54;108353;1268;35336;-83
2022/08/06 00:48:40;;;;;;;7.80;7.00;;;;;;;22.10;62.01;96499.98;108472;1268;22561;-83
2022/08/06 00:51:11;;;;;;;11.30;8.10;;;;;;;22.04;62.12;96499.29;108467;1268;24259;-83
2022/08/06 00:53:46;;;;;;;9.40;8.20;;;;;;;21.98;62.08;96501.17;108518;1268;22575;-84
2022/08/06 00:56:17;;;;;;;8.00;6.90;;;;;;;21.93;62.39;96505.39;108222;1268;101913;-84
2022/08/06 00:58:49;;;;;;;8.50;7.60;;;;;;;21.92;62.35;96506.14;108428;1268;22535;-85
2022/08/06 01:01:20;;;;;;;12.00;8.10;;;;;;;21.91;62.30;96503.11;108513;1267;22618;-84
2022/08/06 01:03:51;;;;;;;10.20;7.90;;;;;;;21.90;62.48;96503.77;108447;1268;23892;-85
2022/08/06 01:06:23;;;;;;;10.80;8.00;;;;;;;21.92;62.58;96504.45;108211;1268;89146;-84
2022/08/06 01:08:54;;;;;;;12.60;8.40;;;;;;;21.93;62.42;96499.38;108448;1268;22710;-83
2022/08/06 01:11:25;;;;;;;8.70;7.80;;;;;;;21.92;62.40;96500.37;108379;1270;22591;-84
2022/08/06 01:13:57;;;;;;;8.20;7.40;;;;;;;21.95;62.28;96503.27;108476;1268;25334;-84
2022/08/06 01:16:36;;;;;;;9.10;7.40;;;;;;;21.98;62.44;96502.05;108300;1268;56551;-84
2022/08/06 01:19:31;;;;;;;8.10;7.00;;;;;;;22.01;62.24;96499.69;108385;1269;24310;-84
2022/08/06 01:22:18;;;;;;;7.30;6.60;;;;;;;22.06;62.08;96494.40;108368;1268;22519;-83
2022/08/06 01:25:10;;;;;;;7.80;7.00;;;;;;;22.07;62.09;96495.60;108427;1268;23666;-83
2022/08/06 01:27:47;;;;;;;7.90;7.10;;;;;;;22.06;61.81;96494.58;108282;1268;93170;-83
2022/08/06 01:30:21;;;;;;;7.90;7.00;;;;;;;22.09;61.84;96500.17;108394;1268;22642;-83
2022/08/06 01:32:59;;;;;;;9.80;7.70;;;;;;;22.07;61.62;96498.52;108453;1267;22552;-84
2022/08/06 01:35:38;;;;;;;8.20;7.00;;;;;;;22.07;61.87;96498.20;108393;1268;25720;-83
2022/08/06 01:38:13;;;;;;;8.00;7.20;;;;;;;22.06;61.59;96498.11;108447;1268;24455;-83
2022/08/06 01:40:47;;;;;;;8.80;7.00;;;;;;;22.04;61.52;96496.89;108495;1268;22583;-84
2022/08/06 01:43:22;;;;;;;8.40;7.40;;;;;;;22.06;61.42;96497.80;108431;1268;25870;-84
2022/08/06 01:45:55;;;;;;;7.60;6.80;;;;;;;22.07;61.52;96496.90;108376;1268;49156;-83
2022/08/06 01:48:31;;;;;;;7.40;6.60;;;;;;;22.05;61.30;96495.01;108374;1270;22534;-84
2022/08/06 01:51:07;;;;;;;7.80;7.00;;;;;;;22.05;61.33;96496.85;108413;1268;25358;-85
2022/08/06 01:53:41;;;;;;;16.00;9.80;;;;;;;22.10;61.38;96497.76;108463;1267;23878;-84
2022/08/06 01:56:13;;;;;;;11.50;9.30;;;;;;;22.14;61.22;96498.69;108389;1268;36513;-84
2022/08/06 01:58:47;;;;;;;15.10;11.00;;;;;;;22.20;60.94;96492.92;108542;1267;24227;-83
2022/08/06 02:01:20;;;;;;;12.90;8.70;;;;;;;22.23;60.65;96490.76;108487;1267;22681;-83
2022/08/06 02:03:55;;;;;;;10.30;8.70;;;;;;;22.24;60.74;96489.23;108499;1268;22544;-83
2022/08/06 02:06:31;;;;;;;10.70;8.50;;;;;;;22.24;60.53;96488.16;108379;1268;33989;-83
2022/08/06 02:09:06;;;;;;;8.60;7.10;;;;;;;22.25;60.50;96481.16;108387;1268;22667;-84
2022/08/06 02:11:40;;;;;;;8.90;7.30;;;;;;;22.32;60.35;96488.85;108472;1267;22545;-83
2022/08/06 02:14:14;;;;;;;16.50;11.80;;;;;;;22.37;60.11;96489.94;108443;1268;25052;-83
2022/08/06 02:16:46;;;;;;;16.30;10.70;;;;;;;22.40;59.99;96482.14;108361;1268;30716;-84
2022/08/06 02:19:20;;;;;;;13.40;10.80;;;;;;;22.37;60.00;96480.61;108464;1268;25405;-83
2022/08/06 02:21:55;;;;;;;14.20;11.60;;;;;;;22.35;59.98;96481.70;108427;1268;22680;-83
2022/08/06 02:24:29;;;;;;;9.00;7.50;;;;;;;22.33;59.98;96478.05;108450;1268;25337;-83
2022/08/06 02:27:02;;;;;;;9.30;7.80;;;;;;;22.34;60.01;96480.31;108359;1268;28278;-83
2022/08/06 02:29:36;;;;;;;9.10;8.00;;;;;;;22.35;59.81;96479.48;108455;1268;22667;-83
2022/08/06 02:32:09;;;;;;;12.10;9.60;;;;;;;22.30;59.82;96482.40;108521;1268;22548;-83
2022/08/06 02:34:40;;;;;;;13.40;10.90;;;;;;;22.25;59.87;96482.77;108470;1267;25393;-83
2022/08/06 02:37:19;;;;;;;16.70;10.30;;;;;;;22.20;60.09;96485.14;108382;1268;29971;-83
2022/08/06 02:39:54;;;;;;;9.00;7.70;;;;;;;22.16;60.01;96484.91;108548;1267;22661;-83
2022/08/06 02:42:30;;;;;;;11.20;9.60;;;;;;;22.12;60.09;96486.00;108534;1267;22527;-83
2022/08/06 02:45:06;;;;;;;8.60;7.70;;;;;;;22.08;60.07;96483.83;108452;1268;25334;-82
2022/08/06 02:47:43;;;;;;;9.00;8.10;;;;;;;22.08;60.25;96482.72;108400;1268;106237;-83
2022/08/06 02:50:17;;;;;;;11.90;8.30;;;;;;;22.06;60.49;96484.31;108598;1268;24027;-83
2022/08/06 02:52:54;;;;;;;9.90;7.90;;;;;;;22.01;60.48;96488.90;108541;1268;22675;-83
2022/08/06 02:55:30;;;;;;;10.90;9.30;;;;;;;21.98;60.54;96493.39;108297;1267;91234;-83
2022/08/06 02:58:06;;;;;;;10.40;8.30;;;;;;;21.95;60.49;96500.63;108457;1268;24949;-83
2022/08/06 03:00:41;;;;;;;10.80;6.40;;;;;;;21.91;60.64;96508.89;108430;1268;22581;-83
2022/08/06 03:03:16;;;;;;;10.80;7.40;;;;;;;21.88;60.75;96510.70;108477;1268;24231;-83
2022/08/06 03:05:48;;;;;;;7.60;6.10;;;;;;;21.90;60.70;96516.98;108376;1268;31679;-83
2022/08/06 03:08:23;;;;;;;9.20;7.60;;;;;;;21.85;60.87;96524.36;108470;1268;22537;-83
2022/08/06 03:10:56;;;;;;;7.30;6.60;;;;;;;21.73;61.06;96526.87;108571;1268;23860;-83
2022/08/06 03:13:31;;;;;;;6.90;6.30;;;;;;;21.62;61.30;96532.48;108502;1268;22556;-83
2022/08/06 03:16:04;;;;;;;8.30;6.90;;;;;;;21.53;61.58;96531.80;108422;1268;32616;-83
2022/08/06 03:18:37;;;;;;;7.50;6.20;;;;;;;21.45;61.97;96536.25;108500;1268;22559;-83
2022/08/06 03:21:10;;;;;;;7.20;6.40;;;;;;;21.36;62.06;96538.79;108396;1267;22560;-83
2022/08/06 03:23:43;;;;;;;8.00;6.10;;;;;;;21.30;62.27;96543.15;108498;1268;22558;-83
2022/08/06 03:26:18;;;;;;;6.70;5.90;;;;;;;21.27;62.60;96539.29;108324;1267;140644;-83
2022/08/06 03:28:51;;;;;;;9.10;7.00;;;;;;;21.25;62.64;96542.45;108476;1268;22669;-82
2022/08/06 03:31:23;;;;;;;7.90;7.10;;;;;;;21.17;62.87;96544.88;108516;1268;22807;-83
2022/08/06 03:34:00;;;;;;;8.00;7.20;;;;;;;21.14;63.09;96548.75;108511;1268;22612;-83
2022/08/06 03:36:32;;;;;;;8.90;7.40;;;;;;;21.11;63.36;96548.56;108127;1268;164786;-83
2022/08/06 03:39:06;;;;;;;8.20;6.70;;;;;;;21.02;63.62;96552.90;108511;1268;25155;-83
2022/08/06 03:41:39;;;;;;;8.20;7.40;;;;;;;20.97;64.13;96553.83;108497;1267;22564;-83
2022/08/06 03:44:11;;;;;;;8.30;7.50;;;;;;;21.02;64.16;96559.60;108432;1268;22513;-83
2022/08/06 03:46:46;;;;;;;10.00;8.10;;;;;;;21.06;64.26;96567.39;108383;1268;34018;-82
2022/08/06 03:49:24;;;;;;;9.60;7.70;;;;;;;21.08;64.23;96569.60;108518;1268;22558;-83
2022/08/06 03:51:57;;;;;;;12.10;8.50;;;;;;;21.09;64.38;96578.10;108429;1268;22547;-82
2022/08/06 03:54:33;;;;;;;9.00;8.10;;;;;;;21.07;64.51;96573.80;108438;1268;22541;-83
2022/08/06 03:57:07;;;;;;;10.40;8.10;;;;;;;21.04;64.80;96577.76;108363;1268;30003;-83
2022/08/06 03:59:43;;;;;;;10.90;9.60;;;;;;;21.01;65.02;96585.45;108452;1268;23886;-82
2022/08/06 04:02:16;;;;;;;9.50;8.30;;;;;;;21.03;65.16;96588.66;108380;1268;24177;-82
2022/08/06 04:04:49;;;;;;;9.10;8.00;;;;;;;21.12;65.26;96595.50;107525;1268;1220354;-83
2022/08/06 04:07:21;;;;;;;11.30;10.10;;;;;;;21.21;65.31;96594.05;108407;1267;30925;-83
2022/08/06 04:09:53;;;;;;;11.20;8.30;;;;;;;21.20;65.34;96599.10;108508;1268;25371;-83
2022/08/06 04:12:25;;;;;;;20.10;18.30;;;;;;;21.06;65.62;96608.84;108400;1269;22521;-83
2022/08/06 04:14:59;;;;;;;10.10;8.70;;;;;;;20.99;65.96;96602.95;108400;1267;24197;-83
2022/08/06 04:17:35;;;;;;;11.60;10.50;;;;;;;21.03;66.02;96611.45;108310;1268;31813;-83
2022/08/06 04:20:11;;;;;;;8.90;8.00;;;;;;;21.14;66.29;96616.12;108511;1268;22541;-83
2022/08/06 04:22:42;;;;;;;8.90;8.00;;;;;;;21.30;65.97;96616.81;108484;1268;22567;-83
2022/08/06 04:25:14;;;;;;;8.30;7.50;;;;;;;21.40;65.98;96621.66;108392;1268;22524;-83
2022/08/06 04:27:48;;;;;;;8.90;8.00;;;;;;;21.41;65.55;96629.24;108442;1268;22720;-83
2022/08/06 04:30:20;;;;;;;8.70;7.90;;;;;;;21.37;65.72;96631.59;108424;1268;22548;-83
2022/08/06 04:32:53;;;;;;;8.30;7.50;;;;;;;21.33;65.56;96638.45;108426;1268;22600;-83
2022/08/06 04:35:26;;;;;;;8.80;7.90;;;;;;;21.32;65.75;96645.36;108324;1268;34458;-83
2022/08/06 04:38:02;;;;;;;9.00;8.10;;;;;;;21.29;65.73;96651.21;108484;1268;22710;-83
2022/08/06 04:40:35;;;;;;;8.10;7.30;;;;;;;21.40;66.08;96659.57;108396;1268;23107;-83
2022/08/06 04:43:16;;;;;;;8.90;7.90;;;;;;;21.54;66.02;96661.80;108419;1268;22621;-83
2022/08/06 04:45:48;;;;;;;8.30;7.50;;;;;;;21.70;66.01;96667.02;108341;1268;27645;-83
2022/08/06 04:48:24;;;;;;;8.10;7.30;;;;;;;21.85;65.82;96671.80;108542;1268;22566;-82
2022/08/06 04:50:55;;;;;;;8.40;7.60;;;;;;;22.49;66.41;96674.64;108459;1268;22528;-82
2022/08/06 04:53:36;;;;;;;7.80;7.10;;;;;;;24.19;66.38;96681.52;108546;1268;22540;-82
2022/08/06 04:56:08;;;;;;;8.50;7.70;;;;;;;26.29;63.60;96681.61;108549;1268;31619;-83
2022/08/06 04:58:40;;;;;;;7.70;7.00;;;;;;;27.38;58.05;96683.64;108566;1268;22591;-83
2022/08/06 05:01:19;;;;;;;8.60;7.60;;;;;;;27.00;54.93;96684.60;108424;1268;22537;-82
2022/08/06 05:03:50;;;;;;;8.90;7.80;;;;;;;27.56;55.48;96686.94;108420;1268;25365;-83
2022/08/06 05:06:26;;;;;;;8.60;7.00;;;;;;;27.98;52.86;96689.64;108433;1268;28122;-84
2022/08/06 05:09:09;;;;;;;7.50;6.70;;;;;;;28.46;51.95;96696.08;108526;1268;27265;-83
2022/08/06 05:11:45;;;;;;;7.80;7.10;;;;;;;29.61;51.52;96700.53;108462;1268;22528;-83
2022/08/06 05:14:22;;;;;;;8.10;7.30;;;;;;;30.31;48.98;96700.11;108504;1268;22533;-83
2022/08/06 05:16:55;;;;;;;9.10;8.20;;;;;;;30.28;46.52;96704.13;108371;1268;42480;-83
2022/08/06 05:19:34;;;;;;;8.90;7.90;;;;;;;29.84;45.84;96708.76;108562;1268;22653;-84
2022/08/06 05:22:07;;;;;;;8.10;7.40;;;;;;;28.95;46.61;96707.02;108574;1268;22829;-83
2022/08/06 05:24:40;;;;;;;9.90;8.50;;;;;;;28.76;47.11;96712.30;108447;1268;22943;-83
2022/08/06 05:27:12;;;;;;;9.90;8.90;;;;;;;28.62;46.79;96726.20;108466;1268;31363;-81
2022/08/06 05:29:44;;;;;;;11.00;9.10;;;;;;;28.06;47.38;96734.97;108411;1268;22607;-87
2022/08/06 05:32:16;;;;;;;10.20;8.90;;;;;;;27.82;48.57;96739.08;108589;1268;22541;-80
2022/08/06 05:34:49;;;;;;;9.60;8.60;;;;;;;28.27;47.48;96735.67;108422;1268;23838;-82
2022/08/06 05:37:23;;;;;;;10.40;9.50;;;;;;;28.12;47.52;96742.52;108436;1268;40698;-81
2022/08/06 05:39:54;;;;;;;11.90;10.30;;;;;;;28.01;47.89;96752.56;108572;1268;22619;-81
2022/08/06 05:42:26;;;;;;;11.30;9.40;;;;;;;27.56;48.96;96750.83;108572;1267;22542;-80
2022/08/06 05:45:00;;;;;;;9.80;8.50;;;;;;;28.27;49.12;96753.96;108458;1268;22572;-81
2022/08/06 05:47:41;;;;;;;11.20;8.30;;;;;;;29.37;48.08;96766.08;108475;1268;31672;-82
2022/08/06 05:50:22;;;;;;;9.70;8.70;;;;;;;29.94;45.43;96772.88;108537;1268;25183;-82
2022/08/06 05:53:01;;;;;;;10.00;8.80;;;;;;;29.81;45.34;96778.98;108436;1267;23855;-82
2022/08/06 05:55:40;;;;;;;10.30;9.20;;;;;;;30.34;44.34;96783.08;108484;1265;30850;-82
2022/08/06 05:58:15;;;;;;;10.30;9.10;;;;;;;30.35;44.19;96798.39;108448;1268;22582;-82
2022/08/06 06:00:48;;;;;;;10.20;8.00;;;;;;;30.93;43.65;96796.02;108420;1267;23189;-81
2022/08/06 06:03:23;;;;;;;9.00;8.10;;;;;;;30.76;42.59;96804.63;108565;1267;22684;-82
2022/08/06 06:05:55;;;;;;;8.50;7.70;;;;;;;30.46;43.24;96812.14;108480;1268;28315;-81
2022/08/06 06:08:27;;;;;;;10.10;7.90;;;;;;;30.40;42.90;96819.23;108556;1266;24173;-79
2022/08/06 06:11:00;;;;;;;9.00;7.60;;;;;;;29.80;43.12;96820.59;108425;1268;22546;-81
2022/08/06 06:13:32;;;;;;;11.20;8.20;;;;;;;29.10;44.74;96827.27;108575;1267;22551;-81
2022/08/06 06:16:13;;;;;;;9.10;8.20;;;;;;;29.06;44.79;96833.11;108350;1268;34145;-82
2022/08/06 06:18:55;;;;;;;10.10;9.10;;;;;;;27.46;46.39;96839.52;108583;1268;22536;-81
2022/08/06 06:21:36;;;;;;;11.50;8.80;;;;;;;25.86;49.84;96841.48;108578;1268;23837;-80
2022/08/06 06:24:17;;;;;;;10.00;8.90;;;;;;;25.07;52.82;96842.52;108435;1268;25400;-80
2022/08/06 06:26:54;;;;;;;10.60;9.50;;;;;;;24.10;55.26;96847.98;108321;1268;24184;-80
2022/08/06 06:29:38;;;;;;;9.80;8.70;;;;;;;23.39;57.93;96860.59;108449;1268;22542;-82
2022/08/06 06:32:17;;;;;;;11.40;10.20;;;;;;;22.79;60.36;96871.14;108644;1268;22532;-78
2022/08/06 06:35:01;;;;;;;12.60;11.30;;;;;;;22.44;61.52;96878.71;108643;1267;24545;-79
2022/08/06 06:37:45;;;;;;;12.70;11.50;;;;;;;22.19;63.48;96883.54;108571;1268;26327;-75
2022/08/06 06:40:26;;;;;;;12.60;11.40;;;;;;;21.83;64.76;96895.60;108660;1266;22524;-76
2022/08/06 06:43:03;;;;;;;15.30;13.90;;;;;;;21.61;66.03;96900.77;108595;1268;23890;-76
2022/08/06 06:45:43;;;;;;;15.70;14.10;;;;;;;21.46;67.24;96906.24;108596;1268;36142;-76
2022/08/06 06:48:22;;;;;;;15.70;14.00;;;;;;;21.25;68.07;96909.48;108689;1266;22609;-75
2022/08/06 06:50:59;;;;;;;16.10;13.60;;;;;;;21.15;69.12;96906.17;108624;1268;22631;-75
2022/08/06 06:53:35;;;;;;;17.20;15.50;;;;;;;21.00;69.87;96913.41;108623;1268;22677;-79
2022/08/06 06:56:09;;;;;;;19.70;17.70;;;;;;;20.93;70.11;96917.11;108520;1268;28068;-79
2022/08/06 06:58:47;;;;;;;19.00;17.20;;;;;;;20.86;70.45;96925.69;108590;1268;23751;-78
2022/08/06 07:01:20;;;;;;;19.30;17.40;;;;;;;20.93;70.28;96937.29;108616;1268;22530;-78
2022/08/06 07:03:53;;;;;;;20.60;18.40;;;;;;;21.07;69.81;96935.88;108582;1268;22543;-78
2022/08/06 07:06:29;;;;;;;20.40;18.30;;;;;;;21.20;69.63;96934.73;108383;1267;55670;-78
2022/08/06 07:09:03;;;;;;;20.20;18.20;;;;;;;21.21;69.54;96946.02;108601;1267;22552;-78
2022/08/06 07:11:34;;;;;;;20.70;18.70;;;;;;;21.18;69.74;96951.32;108499;1268;23337;-78
2022/08/06 07:14:07;;;;;;;19.90;18.10;;;;;;;21.23;69.77;96948.15;108611;1268;22747;-78
2022/08/06 07:16:41;;;;;;;20.10;18.30;;;;;;;21.29;69.68;96955.94;108603;1268;27393;-78
2022/08/06 07:19:15;;;;;;;19.80;17.80;;;;;;;21.37;69.41;96955.62;108491;1268;22604;-78
2022/08/06 07:21:48;;;;;;;20.00;18.10;;;;;;;21.47;69.39;96960.55;108486;1268;26282;-78
2022/08/06 07:24:26;;;;;;;21.30;19.20;;;;;;;21.57;69.35;96965.11;108565;1268;22640;-79
2022/08/06 07:26:59;;;;;;;20.70;18.90;;;;;;;21.44;69.68;96963.39;109233;1268;26811;-77
2022/08/06 07:29:34;;;;;;;30.20;18.50;;;;;;;21.27;70.47;96962.89;108482;1267;22572;-78
2022/08/06 07:32:08;;;;;;;18.30;16.70;;;;;;;21.28;70.58;96969.23;108460;1268;22562;-77
2022/08/06 07:34:41;;;;;;;16.70;15.20;;;;;;;21.28;70.35;96974.71;108420;1268;25247;-77
2022/08/06 07:37:13;;;;;;;17.20;15.60;;;;;;;21.17;70.51;96977.32;108490;1268;25793;-76
2022/08/06 07:39:45;;;;;;;16.60;14.90;;;;;;;21.18;70.76;96978.54;108487;1267;22647;-78
2022/08/06 07:42:18;;;;;;;16.00;14.40;;;;;;;21.21;70.82;96981.55;108636;1268;22555;-78
2022/08/06 07:44:53;;;;;;;15.80;14.30;;;;;;;21.18;71.09;96981.61;108627;1268;22554;-77
2022/08/06 07:47:30;;;;;;;15.20;13.80;;;;;;;21.09;71.41;96987.02;108549;1267;29042;-83
2022/08/06 07:50:02;;;;;;;15.10;13.60;;;;;;;21.12;71.65;96989.35;108349;1268;23881;-77
2022/08/06 07:52:34;;;;;;;13.40;12.00;;;;;;;21.07;71.80;96995.34;108445;1265;25441;-77
2022/08/06 07:55:08;;;;;;;12.60;11.10;;;;;;;20.96;72.78;96992.75;108540;1268;22600;-77
2022/08/06 07:57:41;;;;;;;14.80;12.40;;;;;;;20.90;73.04;96998.73;108502;1266;24891;-78
2022/08/06 08:00:16;;;;;;;11.90;10.80;;;;;;;20.92;72.99;97002.40;108566;1268;22735;-78
2022/08/06 08:08:34;;;;;;;11.00;9.90;;;;;;;21.05;73.24;97018.26;108560;1267;22575;-79
2022/08/06 08:11:06;;;;;;;12.40;11.20;;;;;;;21.04;73.71;97019.50;108421;1268;25403;-81
2022/08/06 08:13:39;;;;;;;11.20;10.10;;;;;;;20.97;73.78;97022.98;108521;1267;22763;-79
2022/08/06 08:16:14;;;;;;;12.00;10.80;;;;;;;20.94;73.87;97025.58;108360;1267;28183;-79
2022/08/06 08:18:45;;;;;;;11.70;10.60;;;;;;;20.89;74.10;97027.50;108413;1267;22658;-78
2022/08/06 08:21:18;;;;;;;12.90;10.50;;;;;;;20.93;74.07;97032.09;108498;1267;22670;-77
2022/08/06 08:23:51;;;;;;;11.60;10.50;;;;;;;20.99;74.34;97030.46;108528;1267;22453;-77
2022/08/06 08:26:23;;;;;;;11.30;10.20;;;;;;;20.95;74.78;97032.76;108479;1267;29666;-78
2022/08/06 08:28:55;;;;;;;10.70;9.70;;;;;;;20.94;74.58;97040.90;108542;1268;22540;-80
2022/08/06 08:31:27;;;;;;;10.40;9.50;;;;;;;21.01;74.68;97048.23;108415;1267;24242;-78
2022/08/06 08:33:58;;;;;;;11.10;9.90;;;;;;;21.05;75.05;97041.20;108548;1267;22545;-79
2022/08/06 08:36:29;;;;;;;12.30;11.10;;;;;;;21.08;74.98;97047.52;108363;1267;42036;-79
2022/08/06 08:39:01;;;;;;;11.60;10.20;;;;;;;21.08;74.77;97043.52;108420;1268;22529;-77
2022/08/06 08:41:35;;;;;;;12.50;11.10;;;;;;;21.13;74.89;97047.55;108623;1268;23261;-76
2022/08/06 08:44:08;;;;;;;12.10;11.00;;;;;;;21.10;74.71;97051.74;108517;1268;22464;-75
2022/08/06 08:46:40;;;;;;;12.20;11.10;;;;;;;21.13;74.71;97047.45;108378;1268;34299;-76
2022/08/06 08:49:23;;;;;;;11.30;10.20;;;;;;;21.15;74.73;97048.62;108532;1267;22777;-76
2022/08/06 08:51:59;;;;;;;12.10;11.00;;;;;;;21.12;74.75;97051.20;108515;1268;23719;-75
2022/08/06 08:54:35;;;;;;;13.40;12.10;;;;;;;21.06;75.13;97046.46;108528;1267;22688;-75
2022/08/06 08:57:08;;;;;;;14.20;12.70;;;;;;;20.95;75.65;97053.42;108392;1267;31603;-77
2022/08/06 08:59:40;;;;;;;15.20;13.30;;;;;;;20.84;76.09;97056.90;108504;1266;22566;-76
2022/08/06 09:02:14;;;;;;;13.90;12.50;;;;;;;20.86;76.14;97059.64;108511;1267;22525;-74
2022/08/06 09:04:45;;;;;;;13.80;12.50;;;;;;;20.88;76.30;97061.17;108468;1268;25373;-74
2022/08/06 09:07:17;;;;;;;15.40;13.90;;;;;;;20.86;76.07;97067.21;108067;1268;358152;-75
2022/08/06 09:09:51;;;;;;;15.20;13.80;;;;;;;20.91;76.04;97067.61;108551;1268;25931;-74
2022/08/06 09:12:23;;;;;;;14.00;12.80;;;;;;;20.98;76.17;97072.77;108524;1268;22617;-75
2022/08/06 09:14:54;;;;;;;14.20;12.90;;;;;;;21.04;76.17;97076.91;108562;1268;22543;-75
2022/08/06 09:17:26;;;;;;;13.30;11.90;;;;;;;21.02;76.30;97082.55;108356;1268;30374;-75
2022/08/06 09:19:57;;;;;;;9.90;9.00;;;;;;;20.98;76.61;97085.89;108550;1267;22625;-75
2022/08/06 09:22:28;;;;;;;10.80;9.70;;;;;;;20.93;77.08;97084.23;108515;1267;22555;-75
2022/08/06 09:25:00;;;;;;;9.60;8.60;;;;;;;20.84;77.19;97086.30;108691;1267;24912;-74
2022/08/06 09:27:39;;;;;;;8.40;7.60;;;;;;;20.85;77.27;97092.58;108996;1266;55665;-75
2022/08/06 09:30:19;;;;;;;9.80;8.80;;;;;;;20.94;77.50;97090.23;108591;1267;22697;-75
2022/08/06 09:32:50;;;;;;;9.50;8.50;;;;;;;20.97;77.43;97091.17;109925;1266;23027;-75
2022/08/06 09:35:24;;;;;;;9.10;8.10;;;;;;;20.95;77.79;97097.45;108666;1267;31272;-75
2022/08/06 09:38:04;;;;;;;8.90;7.60;;;;;;;20.99;77.46;97095.91;108664;1267;25438;-74
2022/08/06 09:40:36;;;;;;;9.40;7.80;;;;;;;20.92;77.46;97096.45;108567;1268;22596;-74
2022/08/06 09:43:07;;;;;;;9.80;7.50;;;;;;;20.90;77.93;97096.76;108525;1267;25229;-74
2022/08/06 09:45:47;;;;;;;8.30;7.40;;;;;;;20.92;77.83;97103.22;108429;1267;35511;-74
2022/08/06 09:48:19;;;;;;;10.90;8.60;;;;;;;20.90;77.99;97104.46;108484;1268;22573;-74
2022/08/06 09:50:51;;;;;;;9.70;8.20;;;;;;;20.92;77.96;97105.30;108428;1268;25235;-74
2022/08/06 09:53:22;;;;;;;11.20;8.60;;;;;;;21.05;77.97;97111.75;108500;1267;23852;-74
2022/08/06 09:55:55;;;;;;;10.80;7.60;;;;;;;21.12;77.74;97110.61;108475;1267;25390;-73
2022/08/06 09:58:36;;;;;;;9.70;7.90;;;;;;;21.10;77.50;97113.06;108506;1267;22494;-72
2022/08/06 10:01:18;;;;;;;9.60;8.10;;;;;;;21.13;77.51;97110.17;108527;1267;22905;-73
2022/08/06 10:03:50;;;;;;;8.90;7.80;;;;;;;21.19;77.35;97109.92;108508;1266;23729;-74
2022/08/06 10:06:21;;;;;;;7.90;7.10;;;;;;;21.32;77.46;97111.39;108487;1266;27126;-74
2022/08/06 10:09:08;;;;;;;9.40;7.20;;;;;;;21.50;77.52;97110.09;108525;1267;22535;-75
2022/08/06 10:11:42;;;;;;;7.20;6.50;;;;;;;21.72;77.12;97107.42;108543;1267;24130;-73
2022/08/06 10:14:25;;;;;;;7.20;6.30;;;;;;;21.83;76.51;97107.91;108576;1267;22532;-73
2022/08/06 10:17:08;;;;;;;;;;;;;;;21.96;76.21;97108.23;108512;1267;27026;-74
2022/08/06 10:19:46;;;;;;;8.00;6.40;;;;;;;21.98;75.37;97109.21;108523;1266;22538;-74
2022/08/06 10:22:19;;;;;;;5.90;5.30;;;;;;;21.83;74.84;97111.60;108551;1267;23105;-74
2022/08/06 10:24:52;;;;;;;6.80;6.00;;;;;;;21.67;74.72;97116.45;108539;1268;22585;-75
2022/08/06 10:27:29;;;;;;;6.30;5.50;;;;;;;21.55;74.88;97121.38;108536;1267;28469;-75
2022/08/06 10:30:05;;;;;;;6.30;5.70;;;;;;;21.51;74.89;97122.61;108417;1267;22524;-76
2022/08/06 10:32:54;;;;;;;6.40;5.70;;;;;;;21.57;75.51;97126.08;108499;1267;22547;-75
2022/08/06 10:35:26;;;;;;;6.40;5.80;;;;;;;21.52;74.93;97128.81;108438;1267;34234;-76
2022/08/06 10:38:03;;;;;;;8.70;5.30;;;;;;;21.60;75.33;97136.79;108497;1267;22526;-79
2022/08/06 10:40:36;;;;;;;6.30;5.40;;;;;;;21.75;75.13;97135.94;108490;1267;22518;-78
2022/08/06 10:43:08;;;;;;;7.90;5.40;;;;;;;21.90;74.86;97138.90;108515;1267;22901;-78
2022/08/06 10:45:41;;;;;;;6.00;5.40;;;;;;;21.97;74.41;97139.43;108430;1268;38039;-76
2022/08/06 10:48:12;;;;;;;6.80;5.20;;;;;;;22.01;74.62;97143.25;108542;1267;22533;-76
2022/08/06 10:50:44;;;;;;;9.20;5.70;;;;;;;22.13;74.25;97146.27;108419;1267;23891;-75
2022/08/06 10:53:17;;;;;;;5.80;5.30;;;;;;;22.23;74.10;97147.98;108561;1268;22907;-76
2022/08/06 10:55:48;;;;;;;5.70;4.90;;;;;;;22.21;73.99;97146.03;108446;1267;35128;-77
2022/08/06 10:58:21;;;;;;;7.20;5.20;;;;;;;22.19;73.92;97147.77;108463;1267;24167;-77
2022/08/06 11:00:53;;;;;;;7.70;5.10;;;;;;;22.20;73.67;97148.95;108532;1268;22474;-77
2022/08/06 11:03:42;;;;;;;6.70;5.70;;;;;;;22.24;73.16;97143.60;108700;1267;23016;-78
2022/08/06 11:06:29;;;;;;;6.60;5.10;;;;;;;22.17;72.88;97143.39;108634;1267;28126;-78
2022/08/06 11:09:16;;;;;;;5.40;4.70;;;;;;;22.24;73.16;97150.38;108610;1267;22477;-76
2022/08/06 11:12:11;;;;;;;5.50;4.90;;;;;;;22.39;73.25;97152.76;108718;1268;22824;-76
2022/08/06 11:14:45;;;;;;;5.50;5.00;;;;;;;22.37;72.23;97154.24;108629;1267;22561;-77
2022/08/06 11:17:17;;;;;;;6.00;5.10;;;;;;;22.10;72.18;97156.21;108656;1267;23854;-76
2022/08/06 11:19:49;;;;;;;5.70;5.10;;;;;;;21.97;72.74;97154.93;108564;1267;22532;-76
2022/08/06 11:22:38;;;;;;;5.50;4.80;;;;;;;21.95;72.88;97155.48;108549;1267;22556;-75
2022/08/06 11:25:10;;;;;;;5.60;4.90;;;;;;;22.01;73.12;97156.74;108414;1268;24413;-75
2022/08/06 11:27:57;;;;;;;5.00;4.30;;;;;;;22.02;72.98;97157.55;108463;1266;36026;-76
2022/08/06 11:30:42;;;;;;;5.30;4.40;;;;;;;21.96;72.78;97155.20;108532;1267;22554;-77
2022/08/06 11:33:14;;;;;;;5.50;3.90;;;;;;;21.96;73.01;97155.76;108455;1267;22587;-77
2022/08/06 11:35:50;;;;;;;5.10;3.80;;;;;;;21.93;72.56;97156.27;108449;1267;33490;-76
2022/08/06 11:39:07;;;;;;;6.30;4.20;;;;;;;21.74;72.82;97157.98;108526;1268;22858;-75
2022/08/06 11:41:47;;;;;;;5.10;3.90;;;;;;;21.49;73.19;97161.40;108313;1268;22554;-74
2022/08/06 11:44:20;;;;;;;5.70;3.90;;;;;;;21.41;73.81;97168.60;108575;1267;22695;-75
2022/08/06 11:47:07;;;;;;;4.60;4.10;;;;;;;21.31;73.97;97167.52;108462;1267;25383;-76
2022/08/06 11:49:43;;;;;;;4.90;3.90;;;;;;;21.26;74.46;97169.96;108573;1267;22828;-76
2022/08/06 11:52:41;;;;;;;4.70;3.90;;;;;;;21.26;74.81;97174.19;108508;1268;22535;-76
2022/08/06 11:55:15;;;;;;;5.00;4.30;;;;;;;21.12;75.09;97178.01;108416;1268;22619;-75
2022/08/06 11:57:48;;;;;;;4.70;4.20;;;;;;;20.89;75.47;97176.73;108558;1267;22488;-75
2022/08/06 12:00:24;;;;;;;4.90;4.10;;;;;;;20.74;76.34;97181.52;108555;1268;22612;-75